createdAt,value
2022-10-13T00:00:55.327Z,99.99
2022-10-13T00:01:55.436Z,99.99
2022-10-13T00:02:55.470Z,99.99
2022-10-13T00:03:55.277Z,99.99
2022-10-13T00:04:55.234Z,99.99
2022-10-13T00:05:55.214Z,99.99
2022-10-13T00:06:55.192Z,99.99
2022-10-13T00:07:55.190Z,99.99
2022-10-13T00:08:55.195Z,99.99
2022-10-13T00:09:55.264Z,99.99
2022-10-13T00:10:55.552Z,99.99
2022-10-13T00:11:55.430Z,99.99
2022-10-13T00:12:55.234Z,99.99
2022-10-13T00:13:55.269Z,99.99
2022-10-13T00:14:55.200Z,99.99
2022-10-13T00:15:55.199Z,99.99
2022-10-13T00:16:55.231Z,99.99
2022-10-13T00:17:55.199Z,99.99
2022-10-13T00:18:55.272Z,99.99
2022-10-13T00:19:55.076Z,99.99
2022-10-13T00:20:55.074Z,99.99
2022-10-13T00:21:55.127Z,99.99
2022-10-13T00:22:55.040Z,99.99
2022-10-13T00:23:55.561Z,99.99
2022-10-13T00:24:54.992Z,99.99
2022-10-13T00:25:55.168Z,99.99
2022-10-13T00:26:55.152Z,99.99
2022-10-13T00:27:55.024Z,99.99
2022-10-13T00:28:55.443Z,99.99
2022-10-13T00:29:55.153Z,99.99
2022-10-13T00:30:55.170Z,99.99
2022-10-13T00:31:55.031Z,99.99
2022-10-13T00:32:55.071Z,99.99
2022-10-13T00:33:54.975Z,99.99
2022-10-13T00:34:54.946Z,99.99
2022-10-13T00:35:55.365Z,99.99
2022-10-13T00:36:55.054Z,99.99
2022-10-13T00:37:55.193Z,99.99
2022-10-13T00:38:54.906Z,99.99
2022-10-13T00:39:55.032Z,99.99
2022-10-13T00:40:55.274Z,99.99
2022-10-13T00:41:54.966Z,99.99
2022-10-13T00:42:54.871Z,99.99
2022-10-13T00:43:54.847Z,99.99
2022-10-13T00:44:54.876Z,99.99
2022-10-13T00:45:55.406Z,99.99
2022-10-13T00:46:54.987Z,99.99
2022-10-13T00:47:55.272Z,99.99
2022-10-13T00:48:54.817Z,99.99
2022-10-13T00:49:54.879Z,99.99
2022-10-13T00:50:54.827Z,99.99
2022-10-13T00:51:55.035Z,99.99
2022-10-13T00:52:54.889Z,99.99
2022-10-13T00:53:54.964Z,99.99
2022-10-13T00:54:54.723Z,99.99
2022-10-13T00:55:54.797Z,99.99
2022-10-13T00:56:55.136Z,99.99
2022-10-13T00:57:55.542Z,99.99
2022-10-13T00:58:54.763Z,99.99
2022-10-13T00:59:54.841Z,99.99
2022-10-13T01:00:54.730Z,99.99
2022-10-13T01:01:54.886Z,99.99
2022-10-13T01:02:54.648Z,99.99
2022-10-13T01:03:54.692Z,99.99
2022-10-13T01:04:56.086Z,99.99
2022-10-13T01:05:54.612Z,99.99
2022-10-13T01:06:54.592Z,99.99
2022-10-13T01:07:55.047Z,99.99
2022-10-13T01:08:54.648Z,99.99
2022-10-13T01:09:54.571Z,99.99
2022-10-13T01:10:54.969Z,99.99
2022-10-13T01:11:54.851Z,99.99
2022-10-13T01:12:54.528Z,99.99
2022-10-13T01:13:54.517Z,99.99
2022-10-13T01:14:54.653Z,99.99
2022-10-13T01:15:54.740Z,99.99
2022-10-13T01:16:54.768Z,99.99
2022-10-13T01:17:54.632Z,99.99
2022-10-13T01:18:54.485Z,99.99
2022-10-13T01:19:54.631Z,99.99
2022-10-13T01:20:54.621Z,99.99
2022-10-13T01:21:54.483Z,99.99
2022-10-13T01:22:54.654Z,99.99
2022-10-13T01:23:54.654Z,99.99
2022-10-13T01:24:54.571Z,99.99
2022-10-13T01:25:54.706Z,99.99
2022-10-13T01:26:54.426Z,99.99
2022-10-13T01:27:54.566Z,99.99
2022-10-13T01:28:54.441Z,99.99
2022-10-13T01:29:54.574Z,99.99
2022-10-13T01:30:54.627Z,99.99
2022-10-13T01:31:54.783Z,99.99
2022-10-13T01:32:54.716Z,99.99
2022-10-13T01:33:54.344Z,99.99
2022-10-13T01:34:54.323Z,99.99
2022-10-13T01:35:54.324Z,99.99
2022-10-13T01:36:54.276Z,99.99
2022-10-13T01:37:54.274Z,99.99
2022-10-13T01:38:54.249Z,99.99
2022-10-13T01:39:54.963Z,99.99
2022-10-13T01:40:54.252Z,99.99
2022-10-13T01:41:54.320Z,99.99
2022-10-13T01:42:54.213Z,99.99
2022-10-13T01:43:54.225Z,99.99
2022-10-13T01:44:54.378Z,99.99
2022-10-13T01:45:54.221Z,99.99
2022-10-13T01:46:54.181Z,99.99
2022-10-13T01:47:54.175Z,99.99
2022-10-13T01:48:54.248Z,99.99
2022-10-13T01:49:54.147Z,99.99
2022-10-13T01:50:54.358Z,99.99
2022-10-13T01:51:54.179Z,99.99
2022-10-13T01:52:54.212Z,99.98
2022-10-13T01:53:54.300Z,99.57
2022-10-13T01:54:54.221Z,99.47
2022-10-13T01:55:54.326Z,99.37
2022-10-13T01:56:54.092Z,99.16
2022-10-13T01:57:54.316Z,99.16
2022-10-13T01:58:54.066Z,99.27
2022-10-13T01:59:54.072Z,99.37
2022-10-13T02:00:54.273Z,99.11
2022-10-13T02:01:54.053Z,98.91
2022-10-13T02:02:55.172Z,98.71
2022-10-13T02:03:54.187Z,98.71
2022-10-13T02:04:54.485Z,98.61
2022-10-13T02:05:54.132Z,98.61
2022-10-13T02:06:54.105Z,98.50
2022-10-13T02:07:54.389Z,98.50
2022-10-13T02:08:54.452Z,98.61
2022-10-13T02:09:54.072Z,98.61
2022-10-13T02:10:54.119Z,98.81
2022-10-13T02:11:53.942Z,98.71
2022-10-13T02:12:54.402Z,98.50
2022-10-13T02:13:54.125Z,98.50
2022-10-13T02:14:53.943Z,98.61
2022-10-13T02:15:53.913Z,98.61
2022-10-13T02:16:53.929Z,98.61
2022-10-13T02:17:53.971Z,98.50
2022-10-13T02:18:53.880Z,98.61
2022-10-13T02:19:53.817Z,98.61
2022-10-13T02:20:53.839Z,98.71
2022-10-13T02:21:53.871Z,98.71
2022-10-13T02:22:53.817Z,98.40
2022-10-13T02:23:53.811Z,98.50
2022-10-13T02:24:54.091Z,98.50
2022-10-13T02:25:53.798Z,98.20
2022-10-13T02:26:53.843Z,98.40
2022-10-13T02:27:53.866Z,98.30
2022-10-13T02:28:53.743Z,98.10
2022-10-13T02:29:53.773Z,97.99
2022-10-13T02:30:53.714Z,97.85
2022-10-13T02:31:53.827Z,97.64
2022-10-13T02:32:53.751Z,97.33
2022-10-13T02:33:53.790Z,97.24
2022-10-13T02:34:53.699Z,97.24
2022-10-13T02:35:53.725Z,97.33
2022-10-13T02:36:53.723Z,97.54
2022-10-13T02:37:53.694Z,96.83
2022-10-13T02:38:53.712Z,96.92
2022-10-13T02:39:53.727Z,96.92
2022-10-13T02:40:53.634Z,96.62
2022-10-13T02:41:53.631Z,96.68
2022-10-13T02:42:53.623Z,96.78
2022-10-13T02:43:53.637Z,96.78
2022-10-13T02:44:53.628Z,96.17
2022-10-13T02:45:53.631Z,96.27
2022-10-13T02:46:53.652Z,96.17
2022-10-13T02:47:53.626Z,95.96
2022-10-13T02:48:53.631Z,95.96
2022-10-13T02:49:53.543Z,95.96
2022-10-13T02:50:53.575Z,95.86
2022-10-13T02:51:53.603Z,95.86
2022-10-13T02:52:53.537Z,95.56
2022-10-13T02:53:53.720Z,95.86
2022-10-13T02:54:53.749Z,95.65
2022-10-13T02:55:53.838Z,95.76
2022-10-13T02:56:54.084Z,95.76
2022-10-13T02:57:53.608Z,95.76
2022-10-13T02:58:53.468Z,95.76
2022-10-13T02:59:53.491Z,95.45
2022-10-13T03:00:53.987Z,95.56
2022-10-13T03:01:53.480Z,95.56
2022-10-13T03:02:53.411Z,95.65
2022-10-13T03:03:53.822Z,95.65
2022-10-13T03:04:53.433Z,95.96
2022-10-13T03:05:53.414Z,96.06
2022-10-13T03:06:53.434Z,95.76
2022-10-13T03:07:53.939Z,95.86
2022-10-13T03:08:53.902Z,96.06
2022-10-13T03:09:53.596Z,96.06
2022-10-13T03:10:53.394Z,96.06
2022-10-13T03:11:53.791Z,95.86
2022-10-13T03:12:53.354Z,95.96
2022-10-13T03:13:53.805Z,96.06
2022-10-13T03:14:53.316Z,95.96
2022-10-13T03:15:53.383Z,96.06
2022-10-13T03:16:53.552Z,96.27
2022-10-13T03:17:53.670Z,96.47
2022-10-13T03:18:53.424Z,96.37
2022-10-13T03:19:53.268Z,96.37
2022-10-13T03:20:53.387Z,96.37
2022-10-13T03:21:53.665Z,96.27
2022-10-13T03:22:53.336Z,96.37
2022-10-13T03:23:53.356Z,96.37
2022-10-13T03:24:53.500Z,96.37
2022-10-13T03:25:53.863Z,96.47
2022-10-13T03:26:53.190Z,96.47
2022-10-13T03:27:53.229Z,96.37
2022-10-13T03:28:53.629Z,96.47
2022-10-13T03:29:53.764Z,96.37
2022-10-13T03:30:53.337Z,96.37
2022-10-13T03:31:53.134Z,96.27
2022-10-13T03:32:53.504Z,96.17
2022-10-13T03:33:53.309Z,95.96
2022-10-13T03:34:53.212Z,96.06
2022-10-13T03:35:53.091Z,96.06
2022-10-13T03:36:53.318Z,96.17
2022-10-13T03:37:53.108Z,96.17
2022-10-13T03:38:53.082Z,95.76
2022-10-13T03:39:53.506Z,96.06
2022-10-13T03:40:53.356Z,96.27
2022-10-13T03:41:53.184Z,96.47
2022-10-13T03:42:53.178Z,96.17
2022-10-13T03:43:53.597Z,96.17
2022-10-13T03:44:56.339Z,96.37
2022-10-13T03:45:53.071Z,96.27
2022-10-13T03:46:53.273Z,96.06
2022-10-13T03:47:53.107Z,96.47
2022-10-13T03:48:53.115Z,96.27
2022-10-13T03:49:53.305Z,96.37
2022-10-13T03:50:53.828Z,96.58
2022-10-13T03:51:53.012Z,96.58
2022-10-13T03:52:53.166Z,96.58
2022-10-13T03:53:52.922Z,96.47
2022-10-13T03:54:52.887Z,96.72
2022-10-13T03:55:53.049Z,96.47
2022-10-13T03:56:53.158Z,96.58
2022-10-13T03:57:52.939Z,96.58
2022-10-13T03:58:52.964Z,96.58
2022-10-13T03:59:52.843Z,96.78
2022-10-13T04:00:52.934Z,96.78
2022-10-13T04:01:52.939Z,96.92
2022-10-13T04:02:53.057Z,96.92
2022-10-13T04:03:53.187Z,96.92
2022-10-13T04:04:53.304Z,96.92
2022-10-13T04:05:52.997Z,96.83
2022-10-13T04:06:53.240Z,96.83
2022-10-13T04:07:53.197Z,97.24
2022-10-13T04:08:52.936Z,97.03
2022-10-13T04:09:53.625Z,97.13
2022-10-13T04:10:52.843Z,97.24
2022-10-13T04:11:52.783Z,97.13
2022-10-13T04:12:52.755Z,97.03
2022-10-13T04:13:53.052Z,97.13
2022-10-13T04:14:52.920Z,97.24
2022-10-13T04:15:53.189Z,97.44
2022-10-13T04:16:52.773Z,97.44
2022-10-13T04:17:52.783Z,97.54
2022-10-13T04:18:52.911Z,97.44
2022-10-13T04:19:53.045Z,97.33
2022-10-13T04:20:52.727Z,97.24
2022-10-13T04:21:53.072Z,97.24
2022-10-13T04:22:52.715Z,97.64
2022-10-13T04:23:52.667Z,97.13
2022-10-13T04:24:52.964Z,96.83
2022-10-13T04:25:52.880Z,96.58
2022-10-13T04:26:52.646Z,96.47
2022-10-13T04:27:52.619Z,96.47
2022-10-13T04:28:52.726Z,96.58
2022-10-13T04:29:52.613Z,96.58
2022-10-13T04:30:52.731Z,96.47
2022-10-13T04:31:52.949Z,96.47
2022-10-13T04:32:52.615Z,96.27
2022-10-13T04:33:52.793Z,96.37
2022-10-13T04:34:53.024Z,96.47
2022-10-13T04:35:52.945Z,96.88
2022-10-13T04:36:53.266Z,96.68
2022-10-13T04:37:52.524Z,96.78
2022-10-13T04:38:52.534Z,96.88
2022-10-13T04:39:52.493Z,96.58
2022-10-13T04:40:52.782Z,96.68
2022-10-13T04:41:52.447Z,96.68
2022-10-13T04:42:52.672Z,96.37
2022-10-13T04:43:52.466Z,96.68
2022-10-13T04:44:52.673Z,96.37
2022-10-13T04:45:52.572Z,96.06
2022-10-13T04:46:52.416Z,96.17
2022-10-13T04:47:52.396Z,96.17
2022-10-13T04:48:53.313Z,96.17
2022-10-13T04:49:52.558Z,96.37
2022-10-13T04:50:52.361Z,96.17
2022-10-13T04:51:52.405Z,95.96
2022-10-13T04:52:52.588Z,96.27
2022-10-13T04:53:52.415Z,95.96
2022-10-13T04:54:52.560Z,95.56
2022-10-13T04:55:52.335Z,95.56
2022-10-13T04:56:52.321Z,95.65
2022-10-13T04:57:52.324Z,95.76
2022-10-13T04:58:52.304Z,95.96
2022-10-13T04:59:52.299Z,95.76
2022-10-13T05:00:52.319Z,95.56
2022-10-13T05:01:52.565Z,95.56
2022-10-13T05:02:52.227Z,95.56
2022-10-13T05:03:52.271Z,95.65
2022-10-13T05:04:52.253Z,95.76
2022-10-13T05:05:52.228Z,95.96
2022-10-13T05:07:16.985Z,95.65
2022-10-13T05:07:52.382Z,95.56
2022-10-13T05:08:52.220Z,95.65
2022-10-13T05:09:54.019Z,95.65
2022-10-13T05:10:52.163Z,95.76
2022-10-13T05:11:52.535Z,95.65
2022-10-13T05:12:52.415Z,95.45
2022-10-13T05:13:52.341Z,95.25
2022-10-13T05:14:52.497Z,95.04
2022-10-13T05:15:52.154Z,95.04
2022-10-13T05:16:52.118Z,95.04
2022-10-13T05:17:52.292Z,95.15
2022-10-13T05:18:52.168Z,94.74
2022-10-13T05:19:52.099Z,94.79
2022-10-13T05:20:52.149Z,94.79
2022-10-13T05:21:52.232Z,94.79
2022-10-13T05:22:52.349Z,94.90
2022-10-13T05:23:52.174Z,95.20
2022-10-13T05:24:52.112Z,95.10
2022-10-13T05:25:51.973Z,95.04
2022-10-13T05:26:52.330Z,95.15
2022-10-13T05:27:52.042Z,95.25
2022-10-13T05:28:53.082Z,95.35
2022-10-13T05:29:52.190Z,95.45
2022-10-13T05:30:52.060Z,95.35
2022-10-13T05:31:51.957Z,95.45
2022-10-13T05:32:54.028Z,95.65
2022-10-13T05:33:52.165Z,95.56
2022-10-13T05:34:52.250Z,95.56
2022-10-13T05:35:52.003Z,95.65
2022-10-13T05:36:52.070Z,95.56
2022-10-13T05:37:52.043Z,95.45
2022-10-13T05:38:51.876Z,95.15
2022-10-13T05:39:51.890Z,95.15
2022-10-13T05:40:51.911Z,95.15
2022-10-13T05:41:51.872Z,95.25
2022-10-13T05:42:51.827Z,95.15
2022-10-13T05:43:51.987Z,94.94
2022-10-13T05:44:51.866Z,94.53
2022-10-13T05:45:51.954Z,94.94
2022-10-13T05:46:52.051Z,95.15
2022-10-13T05:47:52.092Z,94.84
2022-10-13T05:48:52.387Z,94.74
2022-10-13T05:49:52.034Z,94.74
2022-10-13T05:50:51.770Z,94.94
2022-10-13T05:51:51.835Z,94.94
2022-10-13T05:52:51.760Z,94.94
2022-10-13T05:53:56.848Z,94.64
2022-10-13T05:54:51.736Z,94.84
2022-10-13T05:55:51.767Z,94.74
2022-10-13T05:56:51.711Z,94.84
2022-10-13T05:57:51.814Z,94.94
2022-10-13T05:58:51.720Z,95.04
2022-10-13T05:59:51.714Z,95.04
2022-10-13T06:00:51.670Z,94.94
2022-10-13T06:01:52.022Z,94.84
2022-10-13T06:02:51.678Z,95.25
2022-10-13T06:03:52.235Z,95.45
2022-10-13T06:04:51.632Z,94.64
2022-10-13T06:05:51.643Z,95.15
2022-10-13T06:06:51.611Z,95.15
2022-10-13T06:07:51.627Z,95.04
2022-10-13T06:08:51.848Z,95.35
2022-10-13T06:09:51.974Z,95.35
2022-10-13T06:10:51.628Z,95.25
2022-10-13T06:11:51.640Z,95.35
2022-10-13T06:12:51.570Z,95.25
2022-10-13T06:13:51.641Z,95.45
2022-10-13T06:14:51.575Z,95.15
2022-10-13T06:15:52.007Z,95.25
2022-10-13T06:16:51.718Z,95.15
2022-10-13T06:17:51.628Z,94.94
2022-10-13T06:18:51.693Z,95.04
2022-10-13T06:19:51.968Z,95.04
2022-10-13T06:20:51.915Z,94.84
2022-10-13T06:21:51.841Z,95.15
2022-10-13T06:22:51.563Z,95.25
2022-10-13T06:23:51.668Z,95.25
2022-10-13T06:24:51.488Z,95.45
2022-10-13T06:25:51.447Z,95.45
2022-10-13T06:26:51.649Z,95.35
2022-10-13T06:27:51.408Z,95.25
2022-10-13T06:28:55.637Z,95.15
2022-10-13T06:29:51.804Z,95.04
2022-10-13T06:30:52.010Z,95.04
2022-10-13T06:31:51.599Z,95.25
2022-10-13T06:32:51.352Z,95.15
2022-10-13T06:33:51.500Z,95.04
2022-10-13T06:34:51.483Z,94.94
2022-10-13T06:35:51.454Z,94.94
2022-10-13T06:36:51.323Z,94.74
2022-10-13T06:37:51.336Z,95.04
2022-10-13T06:38:51.291Z,95.04
2022-10-13T06:39:51.782Z,94.84
2022-10-13T06:40:51.335Z,94.74
2022-10-13T06:41:51.415Z,95.04
2022-10-13T06:42:51.580Z,95.04
2022-10-13T06:43:51.788Z,94.94
2022-10-13T06:44:51.317Z,94.74
2022-10-13T06:45:51.401Z,94.74
2022-10-13T06:46:51.339Z,94.59
2022-10-13T06:47:51.250Z,94.70
2022-10-13T06:48:51.454Z,94.70
2022-10-13T06:49:51.418Z,94.59
2022-10-13T06:50:51.162Z,94.38
2022-10-13T06:51:51.364Z,94.49
2022-10-13T06:52:51.146Z,94.49
2022-10-13T06:53:51.161Z,94.70
2022-10-13T06:54:51.194Z,94.18
2022-10-13T06:55:52.722Z,93.67
2022-10-13T06:56:51.323Z,93.88
2022-10-13T06:57:51.233Z,94.18
2022-10-13T06:58:51.224Z,94.18
2022-10-13T06:59:51.196Z,93.37
2022-10-13T07:00:51.041Z,93.52
2022-10-13T07:01:51.194Z,93.73
2022-10-13T07:02:51.029Z,93.63
2022-10-13T07:03:51.247Z,93.12
2022-10-13T07:04:51.265Z,92.91
2022-10-13T07:05:51.068Z,92.61
2022-10-13T07:06:51.003Z,92.20
2022-10-13T07:07:51.012Z,92.91
2022-10-13T07:08:51.265Z,92.87
2022-10-13T07:09:51.581Z,93.07
2022-10-13T07:10:50.976Z,92.61
2022-10-13T07:11:51.180Z,92.57
2022-10-13T07:12:50.939Z,92.26
2022-10-13T07:13:51.124Z,92.26
2022-10-13T07:14:51.008Z,92.36
2022-10-13T07:15:50.995Z,92.16
2022-10-13T07:16:50.926Z,92.57
2022-10-13T07:17:51.065Z,93.07
2022-10-13T07:18:51.037Z,92.46
2022-10-13T07:19:52.051Z,92.36
2022-10-13T07:20:51.350Z,92.67
2022-10-13T07:21:51.403Z,92.97
2022-10-13T07:22:51.604Z,93.07
2022-10-13T07:23:50.901Z,92.87
2022-10-13T07:24:50.991Z,92.97
2022-10-13T07:25:51.052Z,92.97
2022-10-13T07:26:51.008Z,92.05
2022-10-13T07:27:50.861Z,92.36
2022-10-13T07:28:51.616Z,92.83
2022-10-13T07:29:50.778Z,92.93
2022-10-13T07:30:50.792Z,92.63
2022-10-13T07:31:50.945Z,92.01
2022-10-13T07:32:50.781Z,91.71
2022-10-13T07:33:50.936Z,92.11
2022-10-13T07:34:50.887Z,92.11
2022-10-13T07:35:50.789Z,92.22
2022-10-13T07:36:50.720Z,92.32
2022-10-13T07:37:50.850Z,92.48
2022-10-13T07:38:50.778Z,92.58
2022-10-13T07:39:50.893Z,92.58
2022-10-13T07:40:50.791Z,92.68
2022-10-13T07:41:51.399Z,92.68
2022-10-13T07:42:50.652Z,91.87
2022-10-13T07:43:50.635Z,91.46
2022-10-13T07:44:50.822Z,91.87
2022-10-13T07:45:50.807Z,91.77
2022-10-13T07:46:50.887Z,91.22
2022-10-13T07:47:50.786Z,91.52
2022-10-13T07:48:50.653Z,92.03
2022-10-13T07:49:50.608Z,91.72
2022-10-13T07:50:50.584Z,91.58
2022-10-13T07:51:50.585Z,91.17
2022-10-13T07:52:50.978Z,91.38
2022-10-13T07:53:50.575Z,89.54
2022-10-13T07:54:50.932Z,89.95
2022-10-13T07:55:50.566Z,90.01
2022-10-13T07:56:50.493Z,90.31
2022-10-13T07:57:50.524Z,90.52
2022-10-13T07:58:50.496Z,90.62
2022-10-13T07:59:50.604Z,90.62
2022-10-13T08:00:50.608Z,90.72
2022-10-13T08:01:50.561Z,90.52
2022-10-13T08:02:50.483Z,90.42
2022-10-13T08:03:50.895Z,89.20
2022-10-13T08:04:50.981Z,89.81
2022-10-13T08:05:50.467Z,89.91
2022-10-13T08:06:50.486Z,90.22
2022-10-13T08:07:53.494Z,90.17
2022-10-13T08:08:50.384Z,89.76
2022-10-13T08:09:50.453Z,88.95
2022-10-13T08:10:50.952Z,89.97
2022-10-13T08:11:50.376Z,88.85
2022-10-13T08:12:50.486Z,89.26
2022-10-13T08:13:50.529Z,89.76
2022-10-13T08:14:50.565Z,89.76
2022-10-13T08:15:50.743Z,88.30
2022-10-13T08:16:53.035Z,88.30
2022-10-13T08:17:50.561Z,87.99
2022-10-13T08:18:50.435Z,88.71
2022-10-13T08:19:50.291Z,87.99
2022-10-13T08:20:50.663Z,88.20
2022-10-13T08:21:58.185Z,88.60
2022-10-13T08:22:50.492Z,87.99
2022-10-13T08:23:50.273Z,88.50
2022-10-13T08:24:50.256Z,87.89
2022-10-13T08:25:50.262Z,88.20
2022-10-13T08:26:50.391Z,87.89
2022-10-13T08:27:51.658Z,87.99
2022-10-13T08:29:09.530Z,87.59
2022-10-13T08:29:50.367Z,87.29
2022-10-13T08:30:50.604Z,87.18
2022-10-13T08:31:50.810Z,87.59
2022-10-13T08:32:50.195Z,88.30
2022-10-13T08:33:50.187Z,87.69
2022-10-13T08:34:50.163Z,88.50
2022-10-13T08:35:50.143Z,87.69
2022-10-13T08:36:50.185Z,87.59
2022-10-13T08:37:50.140Z,87.69
2022-10-13T08:38:50.126Z,88.10
2022-10-13T08:39:50.240Z,87.99
2022-10-13T08:40:50.172Z,88.20
2022-10-13T08:41:50.159Z,88.40
2022-10-13T08:42:50.306Z,88.40
2022-10-13T08:44:33.031Z,87.99
2022-10-13T08:45:21.761Z,87.79
2022-10-13T08:45:50.403Z,87.45
2022-10-13T08:46:50.008Z,86.83
2022-10-13T08:47:50.038Z,87.34
2022-10-13T08:48:49.998Z,87.65
2022-10-13T08:49:50.003Z,87.24
2022-10-13T08:50:50.198Z,87.04
2022-10-13T08:51:49.995Z,86.43
2022-10-13T08:52:50.058Z,87.14
2022-10-13T08:53:49.970Z,87.34
2022-10-13T08:54:50.474Z,87.65
2022-10-13T08:55:49.980Z,87.24
2022-10-13T08:56:50.470Z,85.92
2022-10-13T08:57:50.216Z,86.74
2022-10-13T08:58:50.033Z,87.24
2022-10-13T08:59:50.046Z,86.22
2022-10-13T09:00:49.983Z,86.63
2022-10-13T09:01:50.382Z,86.63
2022-10-13T09:02:49.855Z,86.22
2022-10-13T09:03:49.963Z,86.53
2022-10-13T09:04:50.080Z,87.10
2022-10-13T09:05:50.011Z,87.30
2022-10-13T09:06:50.106Z,85.98
2022-10-13T09:07:50.168Z,87.37
2022-10-13T09:08:50.003Z,87.77
2022-10-13T09:09:49.944Z,87.26
2022-10-13T09:10:49.939Z,86.05
2022-10-13T09:11:49.983Z,85.39
2022-10-13T09:12:50.113Z,85.60
2022-10-13T09:13:50.004Z,85.90
2022-10-13T09:14:49.916Z,82.86
2022-10-13T09:15:49.778Z,83.77
2022-10-13T09:16:50.078Z,83.23
2022-10-13T09:17:50.262Z,83.63
2022-10-13T09:18:49.743Z,82.82
2022-10-13T09:19:49.743Z,83.94
2022-10-13T09:20:49.703Z,84.95
2022-10-13T09:21:50.280Z,84.20
2022-10-13T09:22:50.069Z,83.80
2022-10-13T09:23:49.634Z,82.78
2022-10-13T09:24:49.609Z,82.07
2022-10-13T09:25:49.693Z,81.57
2022-10-13T09:26:49.635Z,82.78
2022-10-13T09:27:49.651Z,83.18
2022-10-13T09:28:49.718Z,82.64
2022-10-13T09:29:49.654Z,81.43
2022-10-13T09:30:49.755Z,82.54
2022-10-13T09:31:49.553Z,81.93
2022-10-13T09:32:49.563Z,83.11
2022-10-13T09:33:49.587Z,81.79
2022-10-13T09:34:49.538Z,80.98
2022-10-13T09:35:49.559Z,81.69
2022-10-13T09:36:49.591Z,81.85
2022-10-13T09:37:49.505Z,81.25
2022-10-13T09:38:49.650Z,80.24
2022-10-13T09:39:49.526Z,80.60
2022-10-13T09:40:49.495Z,81.31
2022-10-13T09:41:49.475Z,79.79
2022-10-13T09:42:49.456Z,80.36
2022-10-13T09:43:49.551Z,81.27
2022-10-13T09:44:49.458Z,80.77
2022-10-13T09:45:49.595Z,79.11
2022-10-13T09:46:49.428Z,80.12
2022-10-13T09:47:49.572Z,79.68
2022-10-13T09:48:49.443Z,77.76
2022-10-13T09:49:49.739Z,78.27
2022-10-13T09:50:49.457Z,78.06
2022-10-13T09:51:49.486Z,77.73
2022-10-13T09:52:49.526Z,78.13
2022-10-13T09:53:49.483Z,77.73
2022-10-13T09:54:49.410Z,76.72
2022-10-13T09:55:49.318Z,79.85
2022-10-13T09:56:49.657Z,79.34
2022-10-13T09:57:49.371Z,79.14
2022-10-13T09:58:49.566Z,76.42
2022-10-13T09:59:49.636Z,77.62
2022-10-13T10:00:49.455Z,75.95
2022-10-13T10:01:49.279Z,77.50
2022-10-13T10:02:49.542Z,78.50
2022-10-13T10:03:49.379Z,78.50
2022-10-13T10:04:49.269Z,77.70
2022-10-13T10:05:49.589Z,79.32
2022-10-13T10:06:49.574Z,79.32
2022-10-13T10:07:49.224Z,77.39
2022-10-13T10:09:05.192Z,77.94
2022-10-13T10:09:49.960Z,77.23
2022-10-13T10:10:49.747Z,77.33
2022-10-13T10:11:49.300Z,78.44
2022-10-13T10:12:49.274Z,79.66
2022-10-13T10:13:49.271Z,79.46
2022-10-13T10:14:49.382Z,79.55
2022-10-13T10:15:49.432Z,77.03
2022-10-13T10:16:49.119Z,77.73
2022-10-13T10:17:49.122Z,78.64
2022-10-13T10:18:49.188Z,79.05
2022-10-13T10:19:49.267Z,79.66
2022-10-13T10:20:49.909Z,79.49
2022-10-13T10:21:49.127Z,78.88
2022-10-13T10:22:49.061Z,78.99
2022-10-13T10:23:49.036Z,78.78
2022-10-13T10:24:49.107Z,78.48
2022-10-13T10:25:49.130Z,80.00
2022-10-13T10:26:49.418Z,80.00
2022-10-13T10:27:49.146Z,78.88
2022-10-13T10:28:49.141Z,79.63
2022-10-13T10:29:49.132Z,79.43
2022-10-13T10:30:48.991Z,80.24
2022-10-13T10:31:49.155Z,81.15
2022-10-13T10:32:48.982Z,79.02
2022-10-13T10:33:49.204Z,80.24
2022-10-13T10:34:48.984Z,79.83
2022-10-13T10:35:49.038Z,80.34
2022-10-13T10:36:48.938Z,82.06
2022-10-13T10:37:48.946Z,79.19
2022-10-13T10:38:49.127Z,79.90
2022-10-13T10:39:49.365Z,79.25
2022-10-13T10:40:48.970Z,78.10
2022-10-13T10:41:49.044Z,77.15
2022-10-13T10:42:52.139Z,77.56
2022-10-13T10:43:48.893Z,78.03
2022-10-13T10:44:49.091Z,77.79
2022-10-13T10:45:48.870Z,75.84
2022-10-13T10:46:48.843Z,75.34
2022-10-13T10:47:48.835Z,75.34
2022-10-13T10:48:49.206Z,73.58
2022-10-13T10:49:48.847Z,76.00
2022-10-13T10:50:49.484Z,77.38
2022-10-13T10:51:48.815Z,75.33
2022-10-13T10:52:48.931Z,72.24
2022-10-13T10:53:48.871Z,73.75
2022-10-13T10:54:49.509Z,73.75
2022-10-13T10:55:48.744Z,73.72
2022-10-13T10:56:48.775Z,72.81
2022-10-13T10:57:48.750Z,73.98
2022-10-13T10:58:49.112Z,73.88
2022-10-13T10:59:55.598Z,71.23
2022-10-13T11:00:48.714Z,71.53
2022-10-13T11:01:48.744Z,72.84
2022-10-13T11:02:48.680Z,71.60
2022-10-13T11:03:48.706Z,73.07
2022-10-13T11:04:48.802Z,68.25
2022-10-13T11:05:48.634Z,72.24
2022-10-13T11:06:48.671Z,67.28
2022-10-13T11:07:48.600Z,67.35
2022-10-13T11:08:48.631Z,67.14
2022-10-13T11:09:48.674Z,65.94
2022-10-13T11:10:48.665Z,65.74
2022-10-13T11:11:48.622Z,65.54
2022-10-13T11:12:48.575Z,67.58
2022-10-13T11:13:48.597Z,68.29
2022-10-13T11:14:48.573Z,70.19
2022-10-13T11:15:48.612Z,67.08
2022-10-13T11:16:48.637Z,69.29
2022-10-13T11:17:48.676Z,68.08
2022-10-13T11:18:48.618Z,68.49
2022-10-13T11:19:48.545Z,66.98
2022-10-13T11:20:48.972Z,67.31
2022-10-13T11:21:48.753Z,68.85
2022-10-13T11:22:48.591Z,67.27
2022-10-13T11:23:48.669Z,69.22
2022-10-13T11:24:48.678Z,70.63
2022-10-13T11:25:49.105Z,70.16
2022-10-13T11:26:48.648Z,71.77
2022-10-13T11:27:48.686Z,73.58
2022-10-13T11:28:48.679Z,73.28
2022-10-13T11:29:48.437Z,70.76
2022-10-13T11:30:48.519Z,72.67
2022-10-13T11:31:48.485Z,71.40
2022-10-13T11:32:48.611Z,72.00
2022-10-13T11:33:48.447Z,73.82
2022-10-13T11:34:48.540Z,72.24
2022-10-13T11:35:48.470Z,73.35
2022-10-13T11:36:48.498Z,73.05
2022-10-13T11:38:00.593Z,74.19
2022-10-13T11:38:48.373Z,74.08
2022-10-13T11:39:49.538Z,74.69
2022-10-13T11:40:48.351Z,75.10
2022-10-13T11:41:48.720Z,74.08
2022-10-13T11:42:48.367Z,73.62
2022-10-13T11:43:48.265Z,74.12
2022-10-13T11:44:48.479Z,74.93
2022-10-13T11:45:48.347Z,75.54
2022-10-13T11:46:48.371Z,75.94
2022-10-13T11:47:48.666Z,74.76
2022-10-13T11:48:48.232Z,74.56
2022-10-13T11:49:48.571Z,75.47
2022-10-13T11:50:48.220Z,76.38
2022-10-13T11:51:48.216Z,75.57
2022-10-13T11:52:48.217Z,75.91
2022-10-13T11:53:48.163Z,76.21
2022-10-13T11:54:48.211Z,76.62
2022-10-13T11:55:48.178Z,75.40
2022-10-13T11:56:48.865Z,75.71
2022-10-13T11:57:48.170Z,77.02
2022-10-13T11:58:48.394Z,78.63
2022-10-13T11:59:48.194Z,78.43
2022-10-13T12:00:48.463Z,78.47
2022-10-13T12:01:48.283Z,79.79
2022-10-13T12:02:48.438Z,79.79
2022-10-13T12:03:48.260Z,80.12
2022-10-13T12:04:48.519Z,80.53
2022-10-13T12:05:48.054Z,80.73
2022-10-13T12:06:48.072Z,80.83
2022-10-13T12:07:48.209Z,79.92
2022-10-13T12:08:48.165Z,80.53
2022-10-13T12:09:48.043Z,79.21
2022-10-13T12:10:48.213Z,79.72
2022-10-13T12:11:48.002Z,79.11
2022-10-13T12:12:48.113Z,80.12
2022-10-13T12:13:47.973Z,80.93
2022-10-13T12:14:47.981Z,81.23
2022-10-13T12:15:47.979Z,81.44
2022-10-13T12:16:48.014Z,80.97
2022-10-13T12:17:47.960Z,79.96
2022-10-13T12:18:48.270Z,81.17
2022-10-13T12:19:47.917Z,80.66
2022-10-13T12:20:48.232Z,82.08
2022-10-13T12:21:48.903Z,80.87
2022-10-13T12:22:47.905Z,82.73
2022-10-13T12:23:48.027Z,83.33
2022-10-13T12:24:48.082Z,84.55
2022-10-13T12:25:48.482Z,85.05
2022-10-13T12:26:47.848Z,84.45
2022-10-13T12:27:47.919Z,85.25
2022-10-13T12:28:48.163Z,84.34
2022-10-13T12:29:47.931Z,84.25
2022-10-13T12:30:48.036Z,85.46
2022-10-13T12:31:47.877Z,85.19
2022-10-13T12:32:47.791Z,86.00
2022-10-13T12:33:47.864Z,85.50
2022-10-13T12:34:47.793Z,86.05
2022-10-13T12:35:47.777Z,87.56
2022-10-13T12:36:47.847Z,88.37
2022-10-13T12:37:47.731Z,89.43
2022-10-13T12:38:47.745Z,89.02
2022-10-13T12:39:47.757Z,89.43
2022-10-13T12:40:47.815Z,89.67
2022-10-13T12:41:47.744Z,89.77
2022-10-13T12:42:47.873Z,90.99
2022-10-13T12:43:47.696Z,91.09
2022-10-13T12:44:47.726Z,92.10
2022-10-13T12:45:48.329Z,92.21
2022-10-13T12:46:47.806Z,92.82
2022-10-13T12:47:47.666Z,92.91
2022-10-13T12:48:47.919Z,93.12
2022-10-13T12:49:47.620Z,93.42
2022-10-13T12:50:47.605Z,92.61
2022-10-13T12:51:47.676Z,93.67
2022-10-13T12:52:47.777Z,94.27